sensor_id;sensor_type;location;lat;lon;timestamp;temperature;humidity
4406;DHT22;2216;53.806;11.598;2023-04-24T00:00:54;12.80;58.60
4406;DHT22;2216;53.806;11.598;2023-04-24T00:03:22;12.80;58.70
4406;DHT22;2216;53.806;11.598;2023-04-24T00:05:48;12.70;58.80
4406;DHT22;2216;53.806;11.598;2023-04-24T00:08:15;12.80;58.90
4406;DHT22;2216;53.806;11.598;2023-04-24T00:10:41;12.80;59.00
4406;DHT22;2216;53.806;11.598;2023-04-24T00:13:07;12.80;59.00
4406;DHT22;2216;53.806;11.598;2023-04-24T00:15:32;12.80;58.70
4406;DHT22;2216;53.806;11.598;2023-04-24T00:18:16;12.80;58.80
4406;DHT22;2216;53.806;11.598;2023-04-24T00:20:42;12.80;59.10
4406;DHT22;2216;53.806;11.598;2023-04-24T00:23:09;12.80;59.20
4406;DHT22;2216;53.806;11.598;2023-04-24T00:25:34;12.80;59.00
4406;DHT22;2216;53.806;11.598;2023-04-24T00:28:00;12.70;59.00
4406;DHT22;2216;53.806;11.598;2023-04-24T00:30:26;12.80;59.10
4406;DHT22;2216;53.806;11.598;2023-04-24T00:32:51;12.80;58.90
4406;DHT22;2216;53.806;11.598;2023-04-24T00:35:17;12.80;58.90
4406;DHT22;2216;53.806;11.598;2023-04-24T00:37:45;12.80;59.10
4406;DHT22;2216;53.806;11.598;2023-04-24T00:40:11;12.80;58.90
4406;DHT22;2216;53.806;11.598;2023-04-24T00:42:37;12.80;59.00
4406;DHT22;2216;53.806;11.598;2023-04-24T00:45:05;12.80;58.90
4406;DHT22;2216;53.806;11.598;2023-04-24T00:47:33;12.80;58.70
4406;DHT22;2216;53.806;11.598;2023-04-24T00:50:04;12.80;59.00
4406;DHT22;2216;53.806;11.598;2023-04-24T00:52:31;12.80;58.70
4406;DHT22;2216;53.806;11.598;2023-04-24T00:54:58;12.80;59.40
4406;DHT22;2216;53.806;11.598;2023-04-24T00:57:24;12.80;59.00
4406;DHT22;2216;53.806;11.598;2023-04-24T00:59:51;12.80;59.10
4406;DHT22;2216;53.806;11.598;2023-04-24T01:02:19;12.80;59.20
4406;DHT22;2216;53.806;11.598;2023-04-24T01:04:46;12.80;59.00
4406;DHT22;2216;53.806;11.598;2023-04-24T01:07:12;12.90;59.50
4406;DHT22;2216;53.806;11.598;2023-04-24T01:09:41;12.70;59.30
4406;DHT22;2216;53.806;11.598;2023-04-24T01:12:09;12.70;59.20
4406;DHT22;2216;53.806;11.598;2023-04-24T01:14:36;12.70;59.20
4406;DHT22;2216;53.806;11.598;2023-04-24T01:17:01;12.70;59.20
4406;DHT22;2216;53.806;11.598;2023-04-24T01:19:27;12.70;59.30
4406;DHT22;2216;53.806;11.598;2023-04-24T01:21:54;12.70;59.70
4406;DHT22;2216;53.806;11.598;2023-04-24T01:24:23;12.70;59.20
4406;DHT22;2216;53.806;11.598;2023-04-24T01:26:49;12.70;59.20
4406;DHT22;2216;53.806;11.598;2023-04-24T01:29:15;12.70;59.10
4406;DHT22;2216;53.806;11.598;2023-04-24T01:31:41;12.60;59.10
4406;DHT22;2216;53.806;11.598;2023-04-24T01:34:07;12.60;59.20
4406;DHT22;2216;53.806;11.598;2023-04-24T01:36:34;12.60;59.20
4406;DHT22;2216;53.806;11.598;2023-04-24T01:39:00;12.60;59.10
4406;DHT22;2216;53.806;11.598;2023-04-24T01:41:26;12.60;59.10
4406;DHT22;2216;53.806;11.598;2023-04-24T01:43:52;12.60;59.10
4406;DHT22;2216;53.806;11.598;2023-04-24T01:46:18;12.60;59.10
4406;DHT22;2216;53.806;11.598;2023-04-24T01:48:45;12.60;59.20
4406;DHT22;2216;53.806;11.598;2023-04-24T01:51:11;12.60;59.20
4406;DHT22;2216;53.806;11.598;2023-04-24T01:53:37;12.60;59.30
4406;DHT22;2216;53.806;11.598;2023-04-24T01:56:02;12.60;59.30
4406;DHT22;2216;53.806;11.598;2023-04-24T01:58:28;12.60;59.20
4406;DHT22;2216;53.806;11.598;2023-04-24T02:00:56;12.70;59.20
4406;DHT22;2216;53.806;11.598;2023-04-24T02:03:24;12.70;59.30
4406;DHT22;2216;53.806;11.598;2023-04-24T02:05:50;12.80;59.40
4406;DHT22;2216;53.806;11.598;2023-04-24T02:08:16;12.70;59.20
4406;DHT22;2216;53.806;11.598;2023-04-24T02:10:42;12.70;59.20
4406;DHT22;2216;53.806;11.598;2023-04-24T02:13:07;12.80;59.10
4406;DHT22;2216;53.806;11.598;2023-04-24T02:15:33;12.80;59.10
4406;DHT22;2216;53.806;11.598;2023-04-24T02:17:59;12.80;59.10
4406;DHT22;2216;53.806;11.598;2023-04-24T02:20:25;12.80;59.00
4406;DHT22;2216;53.806;11.598;2023-04-24T02:22:51;12.70;58.90
4406;DHT22;2216;53.806;11.598;2023-04-24T02:25:16;12.80;58.90
4406;DHT22;2216;53.806;11.598;2023-04-24T02:27:42;12.80;58.80
4406;DHT22;2216;53.806;11.598;2023-04-24T02:30:09;12.80;58.90
4406;DHT22;2216;53.806;11.598;2023-04-24T02:32:35;12.80;58.80
4406;DHT22;2216;53.806;11.598;2023-04-24T02:35:01;12.80;58.70
4406;DHT22;2216;53.806;11.598;2023-04-24T02:37:27;12.80;58.80
4406;DHT22;2216;53.806;11.598;2023-04-24T02:39:53;12.80;58.70
4406;DHT22;2216;53.806;11.598;2023-04-24T02:42:18;12.80;58.80
4406;DHT22;2216;53.806;11.598;2023-04-24T02:44:44;12.70;58.70
4406;DHT22;2216;53.806;11.598;2023-04-24T02:47:10;12.70;58.70
4406;DHT22;2216;53.806;11.598;2023-04-24T02:49:35;12.70;58.60
4406;DHT22;2216;53.806;11.598;2023-04-24T02:52:01;12.70;58.60
4406;DHT22;2216;53.806;11.598;2023-04-24T02:54:26;12.70;58.60
4406;DHT22;2216;53.806;11.598;2023-04-24T02:56:52;12.60;59.20
4406;DHT22;2216;53.806;11.598;2023-04-24T02:59:18;12.60;58.60
4406;DHT22;2216;53.806;11.598;2023-04-24T03:01:43;12.60;58.60
4406;DHT22;2216;53.806;11.598;2023-04-24T03:04:09;12.50;58.60
4406;DHT22;2216;53.806;11.598;2023-04-24T03:06:35;12.50;58.70
4406;DHT22;2216;53.806;11.598;2023-04-24T03:09:01;12.50;58.60
4406;DHT22;2216;53.806;11.598;2023-04-24T03:11:27;12.40;58.70
4406;DHT22;2216;53.806;11.598;2023-04-24T03:13:52;12.40;58.70
4406;DHT22;2216;53.806;11.598;2023-04-24T03:16:18;12.40;58.80
4406;DHT22;2216;53.806;11.598;2023-04-24T03:18:44;12.40;58.80
4406;DHT22;2216;53.806;11.598;2023-04-24T03:21:10;12.40;58.90
4406;DHT22;2216;53.806;11.598;2023-04-24T03:23:35;12.30;59.00
4406;DHT22;2216;53.806;11.598;2023-04-24T03:26:01;12.30;58.90
4406;DHT22;2216;53.806;11.598;2023-04-24T03:28:27;12.30;58.90
4406;DHT22;2216;53.806;11.598;2023-04-24T03:30:53;12.20;58.80
4406;DHT22;2216;53.806;11.598;2023-04-24T03:33:18;12.20;59.00
4406;DHT22;2216;53.806;11.598;2023-04-24T03:35:44;12.20;59.00
4406;DHT22;2216;53.806;11.598;2023-04-24T03:38:10;12.20;59.00
4406;DHT22;2216;53.806;11.598;2023-04-24T03:40:36;12.20;59.00
4406;DHT22;2216;53.806;11.598;2023-04-24T03:43:01;12.30;59.30
4406;DHT22;2216;53.806;11.598;2023-04-24T03:45:27;12.10;59.10
4406;DHT22;2216;53.806;11.598;2023-04-24T03:47:53;12.10;59.20
4406;DHT22;2216;53.806;11.598;2023-04-24T03:50:19;12.10;59.10
4406;DHT22;2216;53.806;11.598;2023-04-24T03:52:44;12.00;59.10
4406;DHT22;2216;53.806;11.598;2023-04-24T03:55:10;12.00;59.30
4406;DHT22;2216;53.806;11.598;2023-04-24T03:57:39;12.00;59.20
4406;DHT22;2216;53.806;11.598;2023-04-24T04:00:08;12.00;59.20
4406;DHT22;2216;53.806;11.598;2023-04-24T04:02:34;12.00;59.20
4406;DHT22;2216;53.806;11.598;2023-04-24T04:05:00;11.90;59.00
4406;DHT22;2216;53.806;11.598;2023-04-24T04:07:25;11.90;59.00
4406;DHT22;2216;53.806;11.598;2023-04-24T04:09:51;11.90;59.50
4406;DHT22;2216;53.806;11.598;2023-04-24T04:12:17;11.90;59.00
4406;DHT22;2216;53.806;11.598;2023-04-24T04:14:42;11.80;58.90
4406;DHT22;2216;53.806;11.598;2023-04-24T04:17:08;11.80;58.90
4406;DHT22;2216;53.806;11.598;2023-04-24T04:19:34;11.80;58.90
4406;DHT22;2216;53.806;11.598;2023-04-24T04:22:00;11.80;58.90
4406;DHT22;2216;53.806;11.598;2023-04-24T04:24:25;11.80;59.00
4406;DHT22;2216;53.806;11.598;2023-04-24T04:26:51;11.80;59.00
4406;DHT22;2216;53.806;11.598;2023-04-24T04:29:17;11.70;59.10
4406;DHT22;2216;53.806;11.598;2023-04-24T04:31:44;11.50;59.00
4406;DHT22;2216;53.806;11.598;2023-04-24T04:34:10;11.70;59.00
4406;DHT22;2216;53.806;11.598;2023-04-24T04:36:36;11.70;59.00
4406;DHT22;2216;53.806;11.598;2023-04-24T04:39:05;11.60;59.00
4406;DHT22;2216;53.806;11.598;2023-04-24T04:41:31;11.60;59.00
4406;DHT22;2216;53.806;11.598;2023-04-24T04:43:57;11.60;59.10
4406;DHT22;2216;53.806;11.598;2023-04-24T04:46:25;11.60;59.00
4406;DHT22;2216;53.806;11.598;2023-04-24T04:48:52;11.60;59.60
4406;DHT22;2216;53.806;11.598;2023-04-24T04:51:19;11.60;59.10
4406;DHT22;2216;53.806;11.598;2023-04-24T04:53:45;11.60;59.10
4406;DHT22;2216;53.806;11.598;2023-04-24T04:56:11;11.60;59.20
4406;DHT22;2216;53.806;11.598;2023-04-24T04:58:37;11.60;59.40
4406;DHT22;2216;53.806;11.598;2023-04-24T05:01:03;11.60;59.60
4406;DHT22;2216;53.806;11.598;2023-04-24T05:03:28;11.70;60.10
4406;DHT22;2216;53.806;11.598;2023-04-24T05:05:54;11.70;60.70
4406;DHT22;2216;53.806;11.598;2023-04-24T05:08:20;11.80;60.40
4406;DHT22;2216;53.806;11.598;2023-04-24T05:10:45;11.80;60.00
4406;DHT22;2216;53.806;11.598;2023-04-24T05:13:11;11.90;60.20
4406;DHT22;2216;53.806;11.598;2023-04-24T05:15:37;12.00;60.10
4406;DHT22;2216;53.806;11.598;2023-04-24T05:18:02;12.10;60.30
4406;DHT22;2216;53.806;11.598;2023-04-24T05:20:28;12.20;60.40
4406;DHT22;2216;53.806;11.598;2023-04-24T05:22:54;12.30;60.70
4406;DHT22;2216;53.806;11.598;2023-04-24T05:25:19;12.40;61.10
4406;DHT22;2216;53.806;11.598;2023-04-24T05:27:45;12.60;61.00
4406;DHT22;2216;53.806;11.598;2023-04-24T05:30:11;12.70;60.90
4406;DHT22;2216;53.806;11.598;2023-04-24T05:32:38;12.80;60.60
4406;DHT22;2216;53.806;11.598;2023-04-24T05:35:04;12.90;60.20
4406;DHT22;2216;53.806;11.598;2023-04-24T05:37:29;13.00;60.00
4406;DHT22;2216;53.806;11.598;2023-04-24T05:39:55;13.00;59.90
4406;DHT22;2216;53.806;11.598;2023-04-24T05:42:21;13.10;59.90
4406;DHT22;2216;53.806;11.598;2023-04-24T05:44:46;13.20;60.00
4406;DHT22;2216;53.806;11.598;2023-04-24T05:47:12;13.20;60.10
4406;DHT22;2216;53.806;11.598;2023-04-24T05:49:38;13.40;60.40
4406;DHT22;2216;53.806;11.598;2023-04-24T05:52:03;13.50;60.70
4406;DHT22;2216;53.806;11.598;2023-04-24T05:54:30;13.70;61.00
4406;DHT22;2216;53.806;11.598;2023-04-24T05:56:56;13.90;61.00
4406;DHT22;2216;53.806;11.598;2023-04-24T05:59:22;14.10;60.90
4406;DHT22;2216;53.806;11.598;2023-04-24T06:01:47;14.30;60.90
4406;DHT22;2216;53.806;11.598;2023-04-24T06:04:13;14.50;60.60
4406;DHT22;2216;53.806;11.598;2023-04-24T06:06:39;14.60;60.30
4406;DHT22;2216;53.806;11.598;2023-04-24T06:09:05;14.70;60.00
4406;DHT22;2216;53.806;11.598;2023-04-24T06:11:31;14.80;59.70
4406;DHT22;2216;53.806;11.598;2023-04-24T06:13:57;15.00;59.60
4406;DHT22;2216;53.806;11.598;2023-04-24T06:16:22;14.80;59.40
4406;DHT22;2216;53.806;11.598;2023-04-24T06:18:48;14.80;59.30
4406;DHT22;2216;53.806;11.598;2023-04-24T06:21:15;14.80;59.30
4406;DHT22;2216;53.806;11.598;2023-04-24T06:23:41;14.70;59.00
4406;DHT22;2216;53.806;11.598;2023-04-24T06:26:07;14.70;58.90
4406;DHT22;2216;53.806;11.598;2023-04-24T06:28:32;14.70;59.00
4406;DHT22;2216;53.806;11.598;2023-04-24T06:30:58;14.60;59.00
4406;DHT22;2216;53.806;11.598;2023-04-24T06:33:24;14.60;59.00
4406;DHT22;2216;53.806;11.598;2023-04-24T06:35:49;14.60;59.00
4406;DHT22;2216;53.806;11.598;2023-04-24T06:38:15;14.50;59.00
4406;DHT22;2216;53.806;11.598;2023-04-24T06:40:41;14.50;58.90
4406;DHT22;2216;53.806;11.598;2023-04-24T06:43:06;14.50;59.00
4406;DHT22;2216;53.806;11.598;2023-04-24T06:45:32;14.40;58.90
4406;DHT22;2216;53.806;11.598;2023-04-24T06:47:58;14.40;59.00
4406;DHT22;2216;53.806;11.598;2023-04-24T06:50:24;14.20;58.90
4406;DHT22;2216;53.806;11.598;2023-04-24T06:52:49;14.30;59.00
4406;DHT22;2216;53.806;11.598;2023-04-24T06:55:15;14.30;59.10
4406;DHT22;2216;53.806;11.598;2023-04-24T06:57:41;14.20;59.00
4406;DHT22;2216;53.806;11.598;2023-04-24T07:00:08;14.20;59.00
4406;DHT22;2216;53.806;11.598;2023-04-24T07:02:34;14.20;59.10
4406;DHT22;2216;53.806;11.598;2023-04-24T07:05:00;14.20;59.20
4406;DHT22;2216;53.806;11.598;2023-04-24T07:07:26;14.10;59.10
4406;DHT22;2216;53.806;11.598;2023-04-24T07:09:52;14.10;59.30
4406;DHT22;2216;53.806;11.598;2023-04-24T07:12:19;14.10;59.30
4406;DHT22;2216;53.806;11.598;2023-04-24T07:14:47;14.20;59.40
4406;DHT22;2216;53.806;11.598;2023-04-24T07:17:13;14.20;60.30
4406;DHT22;2216;53.806;11.598;2023-04-24T07:19:39;14.20;59.60
4406;DHT22;2216;53.806;11.598;2023-04-24T07:22:04;14.30;59.70
4406;DHT22;2216;53.806;11.598;2023-04-24T07:24:30;14.40;60.40
4406;DHT22;2216;53.806;11.598;2023-04-24T07:26:58;14.40;59.70
4406;DHT22;2216;53.806;11.598;2023-04-24T07:29:23;14.50;60.00
4406;DHT22;2216;53.806;11.598;2023-04-24T07:31:49;14.50;60.00
4406;DHT22;2216;53.806;11.598;2023-04-24T07:34:15;14.60;60.00
4406;DHT22;2216;53.806;11.598;2023-04-24T07:36:41;14.70;60.00
4406;DHT22;2216;53.806;11.598;2023-04-24T07:39:07;14.80;60.00
4406;DHT22;2216;53.806;11.598;2023-04-24T07:41:33;14.90;60.00
4406;DHT22;2216;53.806;11.598;2023-04-24T07:43:59;15.00;59.90
4406;DHT22;2216;53.806;11.598;2023-04-24T07:46:25;15.10;60.10
4406;DHT22;2216;53.806;11.598;2023-04-24T07:48:52;15.30;60.20
4406;DHT22;2216;53.806;11.598;2023-04-24T07:51:19;15.40;60.20
4406;DHT22;2216;53.806;11.598;2023-04-24T07:53:45;15.50;60.20
4406;DHT22;2216;53.806;11.598;2023-04-24T07:56:10;15.70;60.10
4406;DHT22;2216;53.806;11.598;2023-04-24T07:58:36;15.90;59.80
4406;DHT22;2216;53.806;11.598;2023-04-24T08:01:02;16.10;59.70
4406;DHT22;2216;53.806;11.598;2023-04-24T08:03:27;16.20;59.20
4406;DHT22;2216;53.806;11.598;2023-04-24T08:05:53;16.30;59.30
4406;DHT22;2216;53.806;11.598;2023-04-24T08:08:21;16.30;59.00
4406;DHT22;2216;53.806;11.598;2023-04-24T08:10:48;16.40;58.90
4406;DHT22;2216;53.806;11.598;2023-04-24T08:13:13;16.40;58.90
4406;DHT22;2216;53.806;11.598;2023-04-24T08:15:39;16.40;59.00
4406;DHT22;2216;53.806;11.598;2023-04-24T08:18:05;16.50;59.20
4406;DHT22;2216;53.806;11.598;2023-04-24T08:20:31;16.60;59.20
4406;DHT22;2216;53.806;11.598;2023-04-24T08:22:56;16.70;59.20
4406;DHT22;2216;53.806;11.598;2023-04-24T08:25:22;16.80;59.10
4406;DHT22;2216;53.806;11.598;2023-04-24T08:27:50;16.90;59.00
4406;DHT22;2216;53.806;11.598;2023-04-24T08:30:16;16.90;58.80
4406;DHT22;2216;53.806;11.598;2023-04-24T08:32:42;17.00;58.50
4406;DHT22;2216;53.806;11.598;2023-04-24T08:35:08;17.00;58.30
4406;DHT22;2216;53.806;11.598;2023-04-24T08:37:37;17.00;58.30
4406;DHT22;2216;53.806;11.598;2023-04-24T08:40:06;16.80;58.40
4406;DHT22;2216;53.806;11.598;2023-04-24T08:42:39;17.00;58.60
4406;DHT22;2216;53.806;11.598;2023-04-24T08:45:06;17.10;58.80
4406;DHT22;2216;53.806;11.598;2023-04-24T08:47:33;17.20;58.20
4406;DHT22;2216;53.806;11.598;2023-04-24T08:50:02;17.30;58.40
4406;DHT22;2216;53.806;11.598;2023-04-24T08:52:28;17.40;57.80
4406;DHT22;2216;53.806;11.598;2023-04-24T08:54:55;17.30;58.20
4406;DHT22;2216;53.806;11.598;2023-04-24T08:57:20;17.40;58.20
4406;DHT22;2216;53.806;11.598;2023-04-24T08:59:47;17.40;58.10
4406;DHT22;2216;53.806;11.598;2023-04-24T09:02:13;17.40;57.90
4406;DHT22;2216;53.806;11.598;2023-04-24T09:04:40;17.30;57.90
4406;DHT22;2216;53.806;11.598;2023-04-24T09:07:07;17.30;58.20
4406;DHT22;2216;53.806;11.598;2023-04-24T09:09:34;17.40;57.80
4406;DHT22;2216;53.806;11.598;2023-04-24T09:12:00;17.40;58.00
4406;DHT22;2216;53.806;11.598;2023-04-24T09:14:27;17.40;57.90
4406;DHT22;2216;53.806;11.598;2023-04-24T09:16:53;17.40;58.00
4406;DHT22;2216;53.806;11.598;2023-04-24T09:19:19;17.30;57.90
4406;DHT22;2216;53.806;11.598;2023-04-24T09:21:46;17.40;58.40
4406;DHT22;2216;53.806;11.598;2023-04-24T09:24:17;17.60;58.20
4406;DHT22;2216;53.806;11.598;2023-04-24T09:26:46;17.60;58.40
4406;DHT22;2216;53.806;11.598;2023-04-24T09:29:18;17.70;58.00
4406;DHT22;2216;53.806;11.598;2023-04-24T09:31:45;17.60;58.00
4406;DHT22;2216;53.806;11.598;2023-04-24T09:34:11;17.60;57.90
4406;DHT22;2216;53.806;11.598;2023-04-24T09:36:42;17.60;57.80
4406;DHT22;2216;53.806;11.598;2023-04-24T09:39:16;17.50;57.80
4406;DHT22;2216;53.806;11.598;2023-04-24T09:41:50;17.50;57.60
4406;DHT22;2216;53.806;11.598;2023-04-24T09:44:21;17.40;57.70
4406;DHT22;2216;53.806;11.598;2023-04-24T09:46:54;17.40;57.90
4406;DHT22;2216;53.806;11.598;2023-04-24T09:49:27;17.40;57.80
4406;DHT22;2216;53.806;11.598;2023-04-24T09:52:05;17.40;57.90
4406;DHT22;2216;53.806;11.598;2023-04-24T09:54:31;17.50;58.50
4406;DHT22;2216;53.806;11.598;2023-04-24T09:56:58;17.60;58.20
4406;DHT22;2216;53.806;11.598;2023-04-24T09:59:25;17.60;58.10
4406;DHT22;2216;53.806;11.598;2023-04-24T10:01:51;17.70;58.20
4406;DHT22;2216;53.806;11.598;2023-04-24T10:04:26;17.70;57.70
4406;DHT22;2216;53.806;11.598;2023-04-24T10:06:56;17.80;57.80
4406;DHT22;2216;53.806;11.598;2023-04-24T10:09:24;17.70;57.40
4406;DHT22;2216;53.806;11.598;2023-04-24T10:11:52;17.70;57.30
4406;DHT22;2216;53.806;11.598;2023-04-24T10:14:23;17.70;57.40
4406;DHT22;2216;53.806;11.598;2023-04-24T10:16:53;17.60;57.20
4406;DHT22;2216;53.806;11.598;2023-04-24T10:19:19;17.60;57.20
4406;DHT22;2216;53.806;11.598;2023-04-24T10:21:45;17.60;57.20
4406;DHT22;2216;53.806;11.598;2023-04-24T10:24:18;17.30;56.90
4406;DHT22;2216;53.806;11.598;2023-04-24T10:26:46;17.30;56.80
4406;DHT22;2216;53.806;11.598;2023-04-24T10:29:14;17.20;56.90
4406;DHT22;2216;53.806;11.598;2023-04-24T10:31:41;17.10;57.00
4406;DHT22;2216;53.806;11.598;2023-04-24T10:37:54;17.10;57.30
4406;DHT22;2216;53.806;11.598;2023-04-24T10:40:27;17.00;57.40
4406;DHT22;2216;53.806;11.598;2023-04-24T10:42:56;17.10;57.80
4406;DHT22;2216;53.806;11.598;2023-04-24T10:45:23;17.20;58.10
4406;DHT22;2216;53.806;11.598;2023-04-24T10:47:57;17.30;58.40
4406;DHT22;2216;53.806;11.598;2023-04-24T10:50:52;17.40;58.30
4406;DHT22;2216;53.806;11.598;2023-04-24T10:53:29;17.60;58.10
4406;DHT22;2216;53.806;11.598;2023-04-24T10:56:05;17.70;58.00
4406;DHT22;2216;53.806;11.598;2023-04-24T11:01:05;18.00;57.60
4406;DHT22;2216;53.806;11.598;2023-04-24T11:03:33;18.00;57.30
4406;DHT22;2216;53.806;11.598;2023-04-24T11:06:03;18.00;57.20
4406;DHT22;2216;53.806;11.598;2023-04-24T11:11:15;17.80;57.00
4406;DHT22;2216;53.806;11.598;2023-04-24T11:16:32;17.60;56.90
4406;DHT22;2216;53.806;11.598;2023-04-24T11:19:04;17.50;56.80
4406;DHT22;2216;53.806;11.598;2023-04-24T11:21:32;17.40;56.80
4406;DHT22;2216;53.806;11.598;2023-04-24T11:26:58;17.10;56.70
4406;DHT22;2216;53.806;11.598;2023-04-24T11:29:42;16.90;56.70
4406;DHT22;2216;53.806;11.598;2023-04-24T11:35:06;16.60;56.70
4406;DHT22;2216;53.806;11.598;2023-04-24T11:37:44;16.50;56.70
4406;DHT22;2216;53.806;11.598;2023-04-24T11:40:17;16.30;56.90
4406;DHT22;2216;53.806;11.598;2023-04-24T11:42:50;16.20;57.00
4406;DHT22;2216;53.806;11.598;2023-04-24T11:45:18;16.10;57.10
4406;DHT22;2216;53.806;11.598;2023-04-24T11:47:47;16.00;57.20
4406;DHT22;2216;53.806;11.598;2023-04-24T11:50:14;16.00;57.30
4406;DHT22;2216;53.806;11.598;2023-04-24T11:52:44;15.90;57.30
4406;DHT22;2216;53.806;11.598;2023-04-24T11:57:39;15.80;57.50
4406;DHT22;2216;53.806;11.598;2023-04-24T12:00:05;15.70;57.70
4406;DHT22;2216;53.806;11.598;2023-04-24T12:02:31;15.80;57.70
4406;DHT22;2216;53.806;11.598;2023-04-24T12:04:57;15.70;57.70
4406;DHT22;2216;53.806;11.598;2023-04-24T12:07:23;15.70;57.60
4406;DHT22;2216;53.806;11.598;2023-04-24T12:09:59;15.60;57.60
4406;DHT22;2216;53.806;11.598;2023-04-24T12:12:26;15.60;57.50
4406;DHT22;2216;53.806;11.598;2023-04-24T12:17:25;15.40;57.50
4406;DHT22;2216;53.806;11.598;2023-04-24T12:19:59;15.40;57.50
4406;DHT22;2216;53.806;11.598;2023-04-24T12:25:10;15.20;57.70
4406;DHT22;2216;53.806;11.598;2023-04-24T12:27:36;15.20;58.00
4406;DHT22;2216;53.806;11.598;2023-04-24T12:30:04;15.30;58.70
4406;DHT22;2216;53.806;11.598;2023-04-24T12:32:31;15.50;59.40
4406;DHT22;2216;53.806;11.598;2023-04-24T12:34:57;15.70;59.00
4406;DHT22;2216;53.806;11.598;2023-04-24T12:37:31;15.90;59.20
4406;DHT22;2216;53.806;11.598;2023-04-24T12:40:03;16.10;59.40
4406;DHT22;2216;53.806;11.598;2023-04-24T12:42:31;16.40;59.50
4406;DHT22;2216;53.806;11.598;2023-04-24T12:44:58;16.60;59.10
4406;DHT22;2216;53.806;11.598;2023-04-24T12:47:26;16.80;58.90
4406;DHT22;2216;53.806;11.598;2023-04-24T12:49:53;16.90;58.40
4406;DHT22;2216;53.806;11.598;2023-04-24T12:52:23;17.00;58.30
4406;DHT22;2216;53.806;11.598;2023-04-24T12:54:52;17.20;58.20
4406;DHT22;2216;53.806;11.598;2023-04-24T12:57:18;17.30;57.90
4406;DHT22;2216;53.806;11.598;2023-04-24T12:59:44;17.50;58.00
4406;DHT22;2216;53.806;11.598;2023-04-24T13:02:11;17.70;58.00
4406;DHT22;2216;53.806;11.598;2023-04-24T13:04:36;17.80;57.70
4406;DHT22;2216;53.806;11.598;2023-04-24T13:07:02;17.90;58.00
4406;DHT22;2216;53.806;11.598;2023-04-24T13:09:28;18.10;57.70
4406;DHT22;2216;53.806;11.598;2023-04-24T13:11:55;18.30;57.80
4406;DHT22;2216;53.806;11.598;2023-04-24T13:14:21;18.40;58.10
4406;DHT22;2216;53.806;11.598;2023-04-24T13:16:47;18.60;57.10
4406;DHT22;2216;53.806;11.598;2023-04-24T13:19:13;18.70;56.00
4406;DHT22;2216;53.806;11.598;2023-04-24T13:21:39;18.70;56.60
4406;DHT22;2216;53.806;11.598;2023-04-24T13:24:05;18.80;56.80
4406;DHT22;2216;53.806;11.598;2023-04-24T13:26:31;18.90;56.70
4406;DHT22;2216;53.806;11.598;2023-04-24T13:28:56;19.00;56.90
4406;DHT22;2216;53.806;11.598;2023-04-24T13:31:22;19.10;57.30
4406;DHT22;2216;53.806;11.598;2023-04-24T13:33:48;19.20;57.30
4406;DHT22;2216;53.806;11.598;2023-04-24T13:36:13;19.30;56.70
4406;DHT22;2216;53.806;11.598;2023-04-24T13:38:39;19.40;56.40
4406;DHT22;2216;53.806;11.598;2023-04-24T13:41:05;19.40;56.30
4406;DHT22;2216;53.806;11.598;2023-04-24T13:43:30;19.40;56.10
4406;DHT22;2216;53.806;11.598;2023-04-24T13:45:56;19.40;56.10
4406;DHT22;2216;53.806;11.598;2023-04-24T13:48:22;19.40;56.40
4406;DHT22;2216;53.806;11.598;2023-04-24T13:50:47;19.30;56.30
4406;DHT22;2216;53.806;11.598;2023-04-24T13:53:15;19.30;56.30
4406;DHT22;2216;53.806;11.598;2023-04-24T13:55:40;19.30;55.40
4406;DHT22;2216;53.806;11.598;2023-04-24T13:58:07;19.20;55.90
4406;DHT22;2216;53.806;11.598;2023-04-24T14:00:33;19.20;56.40
4406;DHT22;2216;53.806;11.598;2023-04-24T14:02:58;19.20;55.80
4406;DHT22;2216;53.806;11.598;2023-04-24T14:05:24;19.20;55.30
4406;DHT22;2216;53.806;11.598;2023-04-24T14:07:50;19.00;55.40
4406;DHT22;2216;53.806;11.598;2023-04-24T14:10:16;18.90;54.60
4406;DHT22;2216;53.806;11.598;2023-04-24T14:12:42;18.80;55.20
4406;DHT22;2216;53.806;11.598;2023-04-24T14:15:08;18.60;55.20
4406;DHT22;2216;53.806;11.598;2023-04-24T14:17:34;18.50;55.40
4406;DHT22;2216;53.806;11.598;2023-04-24T14:20:00;18.30;55.40
4406;DHT22;2216;53.806;11.598;2023-04-24T14:22:26;18.20;55.60
4406;DHT22;2216;53.806;11.598;2023-04-24T14:24:52;18.10;55.50
4406;DHT22;2216;53.806;11.598;2023-04-24T14:27:18;18.00;55.40
4406;DHT22;2216;53.806;11.598;2023-04-24T14:29:43;17.90;55.40
4406;DHT22;2216;53.806;11.598;2023-04-24T14:32:10;17.90;55.10
4406;DHT22;2216;53.806;11.598;2023-04-24T14:34:36;17.70;55.20
4406;DHT22;2216;53.806;11.598;2023-04-24T14:37:02;17.70;55.40
4406;DHT22;2216;53.806;11.598;2023-04-24T14:39:28;17.60;54.60
4406;DHT22;2216;53.806;11.598;2023-04-24T14:41:54;17.50;55.30
4406;DHT22;2216;53.806;11.598;2023-04-24T14:44:20;17.40;55.50
4406;DHT22;2216;53.806;11.598;2023-04-24T14:46:46;17.40;55.50
4406;DHT22;2216;53.806;11.598;2023-04-24T14:49:11;17.40;55.60
4406;DHT22;2216;53.806;11.598;2023-04-24T14:51:37;17.40;55.70
4406;DHT22;2216;53.806;11.598;2023-04-24T14:54:03;17.40;55.50
4406;DHT22;2216;53.806;11.598;2023-04-24T14:56:29;17.50;55.80
4406;DHT22;2216;53.806;11.598;2023-04-24T14:58:55;17.50;55.50
4406;DHT22;2216;53.806;11.598;2023-04-24T15:01:21;17.50;55.40
4406;DHT22;2216;53.806;11.598;2023-04-24T15:03:47;17.40;55.20
4406;DHT22;2216;53.806;11.598;2023-04-24T15:06:12;17.40;55.00
4406;DHT22;2216;53.806;11.598;2023-04-24T15:08:38;17.20;55.10
4406;DHT22;2216;53.806;11.598;2023-04-24T15:11:04;17.20;54.80
4406;DHT22;2216;53.806;11.598;2023-04-24T15:13:30;17.00;54.50
4406;DHT22;2216;53.806;11.598;2023-04-24T15:15:55;16.90;55.10
4406;DHT22;2216;53.806;11.598;2023-04-24T15:18:21;16.80;55.10
4406;DHT22;2216;53.806;11.598;2023-04-24T15:20:47;16.80;55.50
4406;DHT22;2216;53.806;11.598;2023-04-24T15:23:12;16.80;55.70
4406;DHT22;2216;53.806;11.598;2023-04-24T15:25:38;16.80;55.70
4406;DHT22;2216;53.806;11.598;2023-04-24T15:28:04;16.80;55.70
4406;DHT22;2216;53.806;11.598;2023-04-24T15:30:30;16.70;55.70
4406;DHT22;2216;53.806;11.598;2023-04-24T15:32:56;16.70;55.30
4406;DHT22;2216;53.806;11.598;2023-04-24T15:35:21;16.70;55.40
4406;DHT22;2216;53.806;11.598;2023-04-24T15:37:47;16.60;55.20
4406;DHT22;2216;53.806;11.598;2023-04-24T15:40:13;16.50;55.10
4406;DHT22;2216;53.806;11.598;2023-04-24T15:42:44;16.40;54.90
4406;DHT22;2216;53.806;11.598;2023-04-24T15:45:10;16.30;55.20
4406;DHT22;2216;53.806;11.598;2023-04-24T15:47:37;16.10;55.20
4406;DHT22;2216;53.806;11.598;2023-04-24T15:50:04;16.10;55.40
4406;DHT22;2216;53.806;11.598;2023-04-24T15:52:30;16.00;55.40
4406;DHT22;2216;53.806;11.598;2023-04-24T15:54:56;15.90;55.50
4406;DHT22;2216;53.806;11.598;2023-04-24T15:57:22;15.90;55.80
4406;DHT22;2216;53.806;11.598;2023-04-24T15:59:48;15.90;55.90
4406;DHT22;2216;53.806;11.598;2023-04-24T16:02:14;15.90;56.00
4406;DHT22;2216;53.806;11.598;2023-04-24T16:04:47;16.00;55.50
4406;DHT22;2216;53.806;11.598;2023-04-24T16:07:14;15.90;55.40